Time;durP1;ratioP1;P1;durP2;ratioP2;P2;SDS_P1;SDS_P2;PMS_P1;PMS_P2;Temp;Humidity;BMP_temperature;BMP_pressure;BME280_temperature;BME280_humidity;BME280_pressure;Samples;Min_cycle;Max_cycle;Signal;HPM_P1;HPM_P2
2022/01/14 00:02:09;;;;;;;;;;;;;;;1.11;98.68;101808.38;5601657;31;34674;-81
2022/01/14 00:05:11;;;;;;;;;;;;;;;0.92;99.74;101798.47;5591981;31;35125;-81
2022/01/14 00:08:16;;;;;;;;;;;;;;;0.94;99.92;101790.59;5607682;31;34615;-82
2022/01/14 00:11:19;;;;;;;;;;;;;;;1.00;99.84;101784.34;5604354;31;34911;-83
2022/01/14 00:14:35;;;;;;;;;;;;;;;1.02;99.62;101782.56;5602276;31;34733;-82
2022/01/14 00:17:38;;;;;;;;;;;;;;;1.06;99.33;101779.00;5601972;31;34072;-82
2022/01/14 00:20:40;;;;;;;;;;;;;;;1.18;98.45;101765.56;5601143;31;33887;-82
2022/01/14 00:23:45;;;;;;;;;;;;;;;1.06;99.26;101758.13;5602158;31;35306;-82
2022/01/14 00:33:34;;;;;;;;;;;;;;;1.00;99.60;101773.94;5601792;31;34580;-82
2022/01/14 00:36:37;;;;;;;;;;;;;;;1.05;99.04;101769.47;5601724;31;34371;-82
2022/01/14 00:39:39;;;;;;;;;;;;;;;1.04;99.29;101762.53;5601396;31;34838;-82
2022/01/14 00:42:48;;;;;;;;;;;;;;;0.98;99.23;101762.69;5601602;31;34448;-82
2022/01/14 00:45:53;;;;;;;;;;;;;;;0.90;99.70;101758.56;5600930;31;34987;-82
2022/01/14 00:48:56;;;;;;;;;;;;;;;0.93;99.39;101762.81;5600652;31;35065;-82
2022/01/14 00:52:04;;;;;;;;;;;;;;;0.95;98.98;101765.41;5602428;31;34700;-82
2022/01/14 00:55:13;;;;;;;;;;;;;;;0.85;99.17;101760.41;5601776;31;34399;-82
2022/01/14 01:01:36;;;;;;;;;;;;;;;0.72;99.50;101743.44;5602699;31;34882;-82
2022/01/14 01:04:40;;;;;;;;;;;;;;;0.53;100.00;101749.13;5601047;31;34494;-82
2022/01/14 01:07:44;;;;;;;;;;;;;;;0.51;100.00;101750.91;5596875;31;34681;-81
2022/01/14 01:10:49;;;;;;;;;;;;;;;0.49;100.00;101751.87;5596911;31;34781;-82
2022/01/14 01:14:01;;;;;;;;;;;;;;;0.38;100.00;101739.16;5597710;31;34867;-82
2022/01/14 01:17:03;;;;;;;;;;;;;;;0.40;100.00;101732.13;5596939;31;34394;-81
2022/01/14 01:20:12;;;;;;;;;;;;;;;0.33;100.00;101743.59;5598034;31;34358;-82
2022/01/14 01:23:15;;;;;;;;;;;;;;;0.46;100.00;101747.59;5596890;31;34392;-82
2022/01/14 01:26:27;;;;;;;;;;;;;;;0.48;100.00;101734.53;5599148;31;35318;-83
2022/01/14 01:29:45;;;;;;;;;;;;;;;0.49;100.00;101739.72;5599018;31;34585;-82
2022/01/14 01:32:48;;;;;;;;;;;;;;;0.52;100.00;101726.59;5597433;31;35009;-81
2022/01/14 01:35:50;;;;;;;;;;;;;;;0.55;100.00;101731.72;5598303;31;34677;-82
2022/01/14 01:38:53;;;;;;;;;;;;;;;0.56;100.00;101727.38;5596490;31;34527;-82
2022/01/14 01:41:57;;;;;;;;;;;;;;;0.50;100.00;101720.59;5598371;31;34868;-82
2022/01/14 01:45:09;;;;;;;;;;;;;;;0.41;100.00;101707.78;5596624;31;34378;-82
2022/01/14 01:48:11;;;;;;;;;;;;;;;0.41;100.00;101718.22;5597010;31;34498;-82
2022/01/14 01:51:15;;;;;;;;;;;;;;;0.38;100.00;101707.91;5597066;31;34774;-82
2022/01/14 01:54:18;;;;;;;;;;;;;;;0.40;100.00;101711.28;5597098;31;35493;-82
2022/01/14 01:57:24;;;;;;;;;;;;;;;0.35;100.00;101718.37;5597193;31;35156;-82
2022/01/14 02:00:27;;;;;;;;;;;;;;;0.19;100.00;101717.94;5597692;31;33906;-81
2022/01/14 02:03:30;;;;;;;;;;;;;;;0.36;100.00;101707.09;5596986;31;34242;-81
2022/01/14 02:06:34;;;;;;;;;;;;;;;0.28;100.00;101705.50;5596970;31;34569;-81
2022/01/14 02:09:36;;;;;;;;;;;;;;;0.24;100.00;101706.50;5596811;31;34695;-81
2022/01/14 02:12:53;;;;;;;;;;;;;;;0.39;100.00;101700.03;5596868;31;35341;-81
2022/01/14 02:16:17;;;;;;;;;;;;;;;0.34;100.00;101685.44;5598894;31;34390;-81
2022/01/14 02:19:31;;;;;;;;;;;;;;;0.21;100.00;101683.16;5596535;31;35120;-81
2022/01/14 02:22:41;;;;;;;;;;;;;;;0.18;100.00;101678.00;5599830;31;34873;-82
2022/01/14 02:25:45;;;;;;;;;;;;;;;0.14;100.00;101673.81;5596745;31;34340;-81
2022/01/14 02:28:53;;;;;;;;;;;;;;;0.01;100.00;101664.59;5595890;31;35024;-83
2022/01/14 02:31:56;;;;;;;;;;;;;;;-0.09;100.00;101671.78;5595892;31;34771;-83
2022/01/14 02:34:58;;;;;;;;;;;;;;;-0.20;100.00;101654.69;5596326;31;34572;-83
2022/01/14 02:38:18;;;;;;;;;;;;;;;-0.17;100.00;101649.44;5597983;31;34439;-83
2022/01/14 02:41:21;;;;;;;;;;;;;;;-0.13;100.00;101642.38;5598590;31;34850;-83
2022/01/14 02:44:26;;;;;;;;;;;;;;;-0.10;100.00;101644.91;5601547;31;34720;-83
2022/01/14 02:47:29;;;;;;;;;;;;;;;-0.05;100.00;101643.03;5596857;31;34508;-82
2022/01/14 02:54:21;;;;;;;;;;;;;;;-0.09;100.00;101651.84;5571133;31;34889;-81
2022/01/14 02:57:24;;;;;;;;;;;;;;;-0.11;100.00;101652.78;5597718;31;34718;-83
2022/01/14 03:00:28;;;;;;;;;;;;;;;0.02;100.00;101654.16;5596671;31;34632;-84
2022/01/14 03:03:31;;;;;;;;;;;;;;;0.10;100.00;101646.16;5596952;31;35280;-83
2022/01/14 03:06:34;;;;;;;;;;;;;;;0.09;100.00;101642.69;5597282;31;35080;-84
2022/01/14 03:09:39;;;;;;;;;;;;;;;0.17;100.00;101628.62;5596257;31;34816;-83
2022/01/14 03:12:42;;;;;;;;;;;;;;;0.07;100.00;101620.19;5596453;31;35286;-83
2022/01/14 03:15:47;;;;;;;;;;;;;;;-0.03;100.00;101614.41;5596720;31;34595;-83
2022/01/14 03:18:52;;;;;;;;;;;;;;;-0.02;100.00;101611.75;5596518;31;34746;-83
2022/01/14 03:29:00;;;;;;;;;;;;;;;-0.17;100.00;101599.16;5534640;32;33982;-81
2022/01/14 03:32:03;;;;;;;;;;;;;;;0.00;100.00;101603.91;5540257;32;34818;-81
2022/01/14 03:35:07;;;;;;;;;;;;;;;-0.17;100.00;101602.59;5536346;32;34554;-82
2022/01/14 03:38:10;;;;;;;;;;;;;;;-0.13;100.00;101608.56;5534830;32;34634;-81
2022/01/14 03:41:16;;;;;;;;;;;;;;;-0.24;100.00;101595.00;5537928;32;34824;-81
2022/01/14 03:44:19;;;;;;;;;;;;;;;-0.24;100.00;101602.78;5535580;32;34380;-81
2022/01/14 03:47:21;;;;;;;;;;;;;;;-0.20;100.00;101599.22;5536443;32;34777;-84
2022/01/14 03:50:25;;;;;;;;;;;;;;;-0.27;100.00;101595.06;5536590;32;34626;-83
2022/01/14 03:53:28;;;;;;;;;;;;;;;-0.24;100.00;101593.25;5535016;32;34231;-84
2022/01/14 03:56:31;;;;;;;;;;;;;;;-0.17;100.00;101592.19;5535460;32;34803;-84
2022/01/14 03:59:37;;;;;;;;;;;;;;;-0.06;100.00;101594.53;5567346;31;34637;-83
2022/01/14 04:02:42;;;;;;;;;;;;;;;-0.06;100.00;101594.53;5595697;31;34289;-83
2022/01/14 04:05:44;;;;;;;;;;;;;;;-0.11;100.00;101591.19;5594654;31;34809;-84
2022/01/14 04:08:53;;;;;;;;;;;;;;;-0.22;100.00;101588.00;5595044;31;33846;-84
2022/01/14 04:11:56;;;;;;;;;;;;;;;-0.04;100.00;101582.31;5595134;31;34716;-84
2022/01/14 04:18:01;;;;;;;;;;;;;;;-0.23;100.00;101553.34;5597153;31;35052;-84
2022/01/14 04:21:04;;;;;;;;;;;;;;;-0.25;100.00;101543.88;5594865;31;34700;-83
2022/01/14 04:24:11;;;;;;;;;;;;;;;-0.01;100.00;101525.00;5595119;31;34858;-83
2022/01/14 04:27:13;;;;;;;;;;;;;;;0.13;100.00;101531.56;5595412;31;35060;-83
2022/01/14 04:30:17;;;;;;;;;;;;;;;0.12;100.00;101535.06;5596201;31;34300;-84
2022/01/14 04:33:20;;;;;;;;;;;;;;;0.14;100.00;101530.66;5594785;31;35369;-84
2022/01/14 04:36:23;;;;;;;;;;;;;;;0.19;100.00;101515.75;5594657;31;34256;-84
2022/01/14 04:39:26;;;;;;;;;;;;;;;0.17;100.00;101501.94;5594638;31;34616;-84
2022/01/14 04:42:29;;;;;;;;;;;;;;;0.23;100.00;101514.78;5598185;31;34593;-84
2022/01/14 04:48:37;;;;;;;;;;;;;;;0.43;100.00;101502.91;5597820;31;35596;-83
2022/01/14 04:51:40;;;;;;;;;;;;;;;0.42;100.00;101496.00;5598093;31;34782;-81
2022/01/14 04:54:43;;;;;;;;;;;;;;;0.66;100.00;101491.81;5597565;31;34202;-81
2022/01/14 04:57:45;;;;;;;;;;;;;;;0.76;100.00;101494.94;5597727;31;36268;-82
2022/01/14 05:00:48;;;;;;;;;;;;;;;0.79;100.00;101505.28;5598702;31;34716;-82
2022/01/14 05:03:53;;;;;;;;;;;;;;;0.87;100.00;101503.28;5598820;31;33992;-82
2022/01/14 05:07:01;;;;;;;;;;;;;;;0.87;100.00;101482.44;5598272;31;34623;-82
2022/01/14 05:13:07;;;;;;;;;;;;;;;0.46;100.00;101482.00;5597834;31;34713;-83
2022/01/14 05:16:10;;;;;;;;;;;;;;;0.44;100.00;101474.25;5596888;31;35147;-82
2022/01/14 05:19:15;;;;;;;;;;;;;;;0.49;100.00;101470.63;5602938;31;34509;-82
2022/01/14 05:22:18;;;;;;;;;;;;;;;0.47;100.00;101470.69;5598934;31;35737;-81
2022/01/14 05:25:20;;;;;;;;;;;;;;;0.67;100.00;101470.06;5598757;31;34691;-82
2022/01/14 05:28:23;;;;;;;;;;;;;;;0.76;100.00;101468.91;5598435;31;34483;-81
2022/01/14 05:31:44;;;;;;;;;;;;;;;0.91;100.00;101473.63;5599423;31;34416;-82
2022/01/14 05:34:47;;;;;;;;;;;;;;;0.91;100.00;101473.63;5597629;31;34740;-81
2022/01/14 05:37:50;;;;;;;;;;;;;;;0.87;100.00;101471.16;5597889;31;34406;-81
2022/01/14 05:40:52;;;;;;;;;;;;;;;0.95;100.00;101490.00;5598037;31;34424;-82
2022/01/14 05:43:55;;;;;;;;;;;;;;;0.92;100.00;101472.72;5599314;31;34154;-82
2022/01/14 05:46:58;;;;;;;;;;;;;;;0.88;100.00;101478.94;5597571;31;34605;-82
2022/01/14 05:50:01;;;;;;;;;;;;;;;0.84;100.00;101477.34;5599231;31;34068;-83
2022/01/14 05:53:06;;;;;;;;;;;;;;;0.96;100.00;101475.25;5601055;31;34912;-82
2022/01/14 05:56:09;;;;;;;;;;;;;;;0.96;100.00;101477.84;5598144;31;34834;-82
2022/01/14 05:59:11;;;;;;;;;;;;;;;0.96;100.00;101483.06;5598568;31;34685;-82
2022/01/14 06:02:16;;;;;;;;;;;;;;;0.96;100.00;101488.28;5597732;31;34331;-82
2022/01/14 06:05:19;;;;;;;;;;;;;;;0.86;100.00;101475.50;5597940;31;34338;-85
2022/01/14 06:08:22;;;;;;;;;;;;;;;0.81;100.00;101474.81;5598809;31;34702;-84
2022/01/14 06:11:25;;;;;;;;;;;;;;;0.90;100.00;101471.09;5597480;31;34565;-82
2022/01/14 06:14:27;;;;;;;;;;;;;;;0.78;100.00;101464.50;5597640;31;35451;-84
2022/01/14 06:17:29;;;;;;;;;;;;;;;0.76;100.00;101458.47;5598151;31;34671;-82
2022/01/14 06:20:32;;;;;;;;;;;;;;;0.70;100.00;101466.50;5600437;31;34401;-82
2022/01/14 06:23:35;;;;;;;;;;;;;;;0.75;100.00;101467.19;5599205;31;34559;-82
2022/01/14 06:26:56;;;;;;;;;;;;;;;0.78;100.00;101454.06;5598666;31;35641;-84
2022/01/14 06:29:59;;;;;;;;;;;;;;;0.85;100.00;101449.53;5599424;31;34448;-82
2022/01/14 06:33:05;;;;;;;;;;;;;;;0.94;100.00;101424.91;5597306;31;34877;-82
2022/01/14 06:36:08;;;;;;;;;;;;;;;0.89;100.00;101441.56;5596905;31;34593;-84
2022/01/14 06:39:11;;;;;;;;;;;;;;;0.96;100.00;101442.19;5598261;31;34533;-82
2022/01/14 06:42:13;;;;;;;;;;;;;;;0.99;100.00;101443.84;5602055;31;34718;-83
2022/01/14 06:45:16;;;;;;;;;;;;;;;0.98;100.00;101436.94;5600746;31;35077;-82
2022/01/14 06:48:18;;;;;;;;;;;;;;;0.98;100.00;101434.31;5597354;31;34484;-82
2022/01/14 06:51:21;;;;;;;;;;;;;;;1.03;100.00;101450.66;5597539;31;35207;-83
2022/01/14 06:54:23;;;;;;;;;;;;;;;0.99;100.00;101444.72;5596939;31;34577;-82
2022/01/14 06:57:26;;;;;;;;;;;;;;;1.05;100.00;101451.47;5596194;31;34195;-82
2022/01/14 07:00:29;;;;;;;;;;;;;;;1.12;100.00;101450.34;5598698;31;34303;-81
2022/01/14 07:03:31;;;;;;;;;;;;;;;1.16;100.00;101441.53;5596961;31;36407;-83
2022/01/14 07:06:34;;;;;;;;;;;;;;;1.22;100.00;101443.09;5601649;31;34818;-81
2022/01/14 07:09:55;;;;;;;;;;;;;;;1.18;100.00;101434.50;5600262;31;34481;-81
2022/01/14 07:13:01;;;;;;;;;;;;;;;1.14;100.00;101429.44;5595957;31;34302;-82
2022/01/14 07:16:04;;;;;;;;;;;;;;;1.12;100.00;101424.28;5595676;31;34113;-82
2022/01/14 07:19:10;;;;;;;;;;;;;;;1.15;100.00;101434.63;5594946;31;35598;-82
2022/01/14 07:22:12;;;;;;;;;;;;;;;1.09;100.00;101434.81;5595884;31;34640;-82
2022/01/14 07:25:15;;;;;;;;;;;;;;;1.09;100.00;101440.03;5595308;31;34932;-82
2022/01/14 07:28:19;;;;;;;;;;;;;;;1.23;100.00;101436.97;5594918;31;34600;-82
2022/01/14 07:31:22;;;;;;;;;;;;;;;1.12;100.00;101434.72;5595434;31;35340;-83
2022/01/14 07:34:26;;;;;;;;;;;;;;;1.01;100.00;101426.41;5595595;31;34403;-82
2022/01/14 07:37:29;;;;;;;;;;;;;;;1.05;100.00;101430.63;5595317;31;34755;-82
2022/01/14 07:40:31;;;;;;;;;;;;;;;1.09;100.00;101424.38;5595695;31;34811;-82
2022/01/14 07:43:35;;;;;;;;;;;;;;;1.18;100.00;101429.28;5595821;31;34652;-83
2022/01/14 07:46:38;;;;;;;;;;;;;;;1.42;100.00;101431.94;5596133;31;34424;-83
2022/01/14 07:49:44;;;;;;;;;;;;;;;1.64;100.00;101432.03;5596403;31;34732;-84
2022/01/14 07:52:46;;;;;;;;;;;;;;;1.79;100.00;101427.16;5596058;31;34332;-83
2022/01/14 07:55:50;;;;;;;;;;;;;;;1.89;100.00;101423.31;5598829;31;34192;-83
2022/01/14 07:58:52;;;;;;;;;;;;;;;1.98;100.00;101429.91;5600167;31;34402;-83
2022/01/14 08:01:56;;;;;;;;;;;;;;;2.04;100.00;101403.59;5596921;31;35245;-83
2022/01/14 08:05:07;;;;;;;;;;;;;;;2.02;100.00;101426.28;5595685;31;34431;-83
2022/01/14 08:08:10;;;;;;;;;;;;;;;2.09;99.73;101416.47;5594206;31;34143;-83
2022/01/14 08:11:14;;;;;;;;;;;;;;;2.13;99.44;101408.44;5595532;31;35114;-83
2022/01/14 08:14:17;;;;;;;;;;;;;;;2.26;98.84;101418.41;5597531;31;35078;-83
2022/01/14 08:17:21;;;;;;;;;;;;;;;2.34;98.42;101425.97;5597994;31;34403;-82
2022/01/14 08:20:24;;;;;;;;;;;;;;;2.37;98.49;101411.00;5601161;31;34771;-83
2022/01/14 08:23:27;;;;;;;;;;;;;;;2.51;97.43;101420.06;5601438;31;34600;-83
2022/01/14 08:26:32;;;;;;;;;;;;;;;2.59;96.77;101417.97;5598886;31;34658;-83
2022/01/14 08:29:35;;;;;;;;;;;;;;;2.58;96.76;101408.44;5597033;31;34321;-83
2022/01/14 08:32:37;;;;;;;;;;;;;;;2.59;96.42;101399.69;5597981;31;34380;-83
2022/01/14 08:35:42;;;;;;;;;;;;;;;2.55;96.32;101392.87;5599035;31;33819;-83
2022/01/14 08:38:44;;;;;;;;;;;;;;;2.60;96.08;101390.94;5597732;31;34350;-83
2022/01/14 08:41:47;;;;;;;;;;;;;;;2.62;96.08;101378.69;5598346;31;34658;-84
2022/01/14 08:44:50;;;;;;;;;;;;;;;2.65;95.96;101378.53;5598874;31;34680;-83
2022/01/14 08:47:54;;;;;;;;;;;;;;;2.69;95.79;101368.81;5598357;31;34246;-83
2022/01/14 08:51:02;;;;;;;;;;;;;;;2.70;95.89;101368.75;5597459;31;34579;-83
2022/01/14 08:54:08;;;;;;;;;;;;;;;2.81;95.33;101373.53;5597538;31;34411;-83
2022/01/14 08:57:11;;;;;;;;;;;;;;;2.89;94.38;101353.16;5599328;31;34497;-83
2022/01/14 09:00:15;;;;;;;;;;;;;;;2.94;94.39;101355.56;5598222;31;34414;-83
2022/01/14 09:03:24;;;;;;;;;;;;;;;3.05;93.35;101345.50;5599224;31;34609;-83
2022/01/14 09:06:27;;;;;;;;;;;;;;;3.19;92.47;101351.87;5597990;31;34361;-84
2022/01/14 09:09:30;;;;;;;;;;;;;;;3.25;92.29;101341.13;5600122;31;35174;-84
2022/01/14 09:12:34;;;;;;;;;;;;;;;3.28;92.07;101351.47;5598422;31;33984;-83
2022/01/14 09:15:36;;;;;;;;;;;;;;;3.42;91.49;101331.69;5598610;31;35354;-83
2022/01/14 09:18:42;;;;;;;;;;;;;;;3.52;90.34;101327.75;5598906;31;35464;-83
2022/01/14 09:21:45;;;;;;;;;;;;;;;3.51;90.37;101324.25;5598684;31;34785;-83
2022/01/14 09:25:09;;;;;;;;;;;;;;;3.54;90.46;101328.53;5598968;31;34721;-83
2022/01/14 09:28:11;;;;;;;;;;;;;;;3.69;89.17;101313.88;5589461;31;34630;-84
2022/01/14 09:31:16;;;;;;;;;;;;;;;3.69;88.91;101319.09;5578581;31;35489;-83
2022/01/14 09:34:19;;;;;;;;;;;;;;;3.79;88.08;101323.00;5579146;32;35289;-83
2022/01/14 09:37:23;;;;;;;;;;;;;;;3.79;88.25;101319.50;5584530;32;34456;-84
2022/01/14 09:40:27;;;;;;;;;;;;;;;3.86;87.45;101331.41;5580608;32;34823;-83
2022/01/14 09:43:36;;;;;;;;;;;;;;;3.93;87.10;101331.97;5579638;32;34388;-83
2022/01/14 09:46:40;;;;;;;;;;;;;;;3.87;87.30;101323.47;5577839;32;35248;-83
2022/01/14 09:49:44;;;;;;;;;;;;;;;3.92;86.76;101323.25;5579331;32;34384;-84
2022/01/14 09:52:52;;;;;;;;;;;;;;;3.93;86.49;101337.19;5579286;32;34626;-83
2022/01/14 09:55:55;;;;;;;;;;;;;;;4.08;85.60;101317.28;5578108;32;34250;-83
2022/01/14 09:58:57;;;;;;;;;;;;;;;4.05;85.47;101331.38;5578054;32;33931;-83
2022/01/14 10:02:02;;;;;;;;;;;;;;;4.14;85.04;101319.59;5576931;32;34442;-83
2022/01/14 10:05:07;;;;;;;;;;;;;;;4.21;84.48;101331.47;5578175;32;34539;-83
2022/01/14 10:08:17;;;;;;;;;;;;;;;4.26;83.65;101312.91;5578983;32;34419;-84
2022/01/14 10:11:22;;;;;;;;;;;;;;;4.22;84.04;101317.47;5577570;32;34914;-84
2022/01/14 10:14:31;;;;;;;;;;;;;;;4.38;83.28;101321.94;5588650;31;34411;-83
2022/01/14 10:17:35;;;;;;;;;;;;;;;4.32;82.87;101313.47;5595616;31;34635;-83
2022/01/14 10:20:40;;;;;;;;;;;;;;;4.36;82.95;101302.81;5598394;31;35186;-84
2022/01/14 10:23:42;;;;;;;;;;;;;;;4.42;82.68;101310.38;5599725;31;35037;-83
2022/01/14 10:26:45;;;;;;;;;;;;;;;4.37;82.75;101284.41;5598634;31;36884;-83
2022/01/14 10:29:48;;;;;;;;;;;;;;;4.46;82.22;101288.31;5595133;31;34292;-84
2022/01/14 10:32:55;;;;;;;;;;;;;;;4.56;81.63;101289.56;5595668;31;34712;-83
2022/01/14 10:35:58;;;;;;;;;;;;;;;4.56;81.50;101283.47;5599731;31;34381;-84
2022/01/14 10:39:20;;;;;;;;;;;;;;;4.66;80.38;101289.09;5596974;31;35476;-84
2022/01/14 10:42:24;;;;;;;;;;;;;;;4.68;80.03;101282.84;5599863;31;35182;-83
2022/01/14 10:45:36;;;;;;;;;;;;;;;4.58;80.74;101263.28;5599340;31;35543;-84
2022/01/14 10:48:40;;;;;;;;;;;;;;;4.68;80.35;101248.78;5599296;31;34366;-85
2022/01/14 10:51:44;;;;;;;;;;;;;;;4.64;80.16;101250.72;5603225;31;34297;-84
2022/01/14 10:54:55;;;;;;;;;;;;;;;4.68;80.51;101253.16;5597930;31;33999;-84
2022/01/14 10:57:58;;;;;;;;;;;;;;;4.76;80.16;101248.38;5598842;31;34926;-83
2022/01/14 11:01:21;;;;;;;;;;;;;;;4.72;80.58;101252.06;5598499;31;35073;-83
2022/01/14 11:04:24;;;;;;;;;;;;;;;4.75;80.67;101263.25;5596827;31;34655;-83
2022/01/14 11:07:28;;;;;;;;;;;;;;;4.97;79.86;101250.78;5598447;31;33899;-84
2022/01/14 11:10:35;;;;;;;;;;;;;;;4.81;80.42;101256.84;5598148;31;35546;-83
2022/01/14 11:13:39;;;;;;;;;;;;;;;4.86;80.80;101259.22;5598813;31;34907;-84
2022/01/14 11:16:42;;;;;;;;;;;;;;;4.76;81.12;101253.63;5598348;31;34443;-85
2022/01/14 11:19:46;;;;;;;;;;;;;;;4.79;81.33;101242.94;5597594;31;34576;-84
2022/01/14 11:26:15;;;;;;;;;;;;;;;4.93;80.61;101235.22;5597421;31;34015;-84
2022/01/14 11:29:20;;;;;;;;;;;;;;;5.07;80.36;101236.25;5598000;31;34969;-84
2022/01/14 11:32:25;;;;;;;;;;;;;;;4.98;80.87;101227.09;5598749;31;33959;-84
2022/01/14 11:35:27;;;;;;;;;;;;;;;4.99;80.72;101222.72;5598884;31;34129;-84
2022/01/14 11:38:40;;;;;;;;;;;;;;;5.03;80.70;101213.72;5600974;31;34461;-83
2022/01/14 11:41:51;;;;;;;;;;;;;;;5.09;80.57;101202.94;5597760;31;33775;-83
2022/01/14 11:45:00;;;;;;;;;;;;;;;5.13;80.69;101193.94;5594905;31;34695;-84
2022/01/14 11:48:03;;;;;;;;;;;;;;;5.21;80.37;101189.13;5597720;31;34031;-84
2022/01/14 11:51:07;;;;;;;;;;;;;;;5.17;80.54;101184.97;5596900;31;33987;-84
2022/01/14 11:54:10;;;;;;;;;;;;;;;5.30;79.78;101184.31;5596092;31;34912;-84
2022/01/14 11:57:32;;;;;;;;;;;;;;;5.35;79.89;101187.50;5597331;31;35927;-84
2022/01/14 12:00:39;;;;;;;;;;;;;;;5.37;79.93;101185.66;5597891;31;34637;-83
2022/01/14 12:03:51;;;;;;;;;;;;;;;5.45;79.72;101175.59;5601227;31;33998;-84
2022/01/14 12:06:54;;;;;;;;;;;;;;;5.34;80.49;101164.84;5597526;31;35570;-84
2022/01/14 12:10:01;;;;;;;;;;;;;;;5.51;79.69;101153.41;5597265;31;34662;-84
2022/01/14 12:13:30;;;;;;;;;;;;;;;5.53;79.48;101155.00;5582913;31;34787;-84
2022/01/14 12:19:42;;;;;;;;;;;;;;;5.74;77.91;101152.06;5597090;31;34209;-84
2022/01/14 12:23:03;;;;;;;;;;;;;;;5.79;77.53;101139.53;5596788;31;34397;-85
2022/01/14 12:26:17;;;;;;;;;;;;;;;5.77;77.90;101135.28;5599842;31;35526;-84
2022/01/14 12:29:36;;;;;;;;;;;;;;;5.86;77.21;101134.72;5597800;31;35002;-84
2022/01/14 12:32:41;;;;;;;;;;;;;;;5.76;77.23;101152.81;5596662;31;34662;-84
2022/01/14 12:35:45;;;;;;;;;;;;;;;5.88;76.50;101143.38;5599391;31;35385;-84
2022/01/14 12:38:48;;;;;;;;;;;;;;;6.07;75.18;101142.34;5600187;31;34876;-83
2022/01/14 12:41:51;;;;;;;;;;;;;;;5.98;75.44;101156.81;5598081;31;35314;-84
2022/01/14 12:44:54;;;;;;;;;;;;;;;5.96;74.77;101161.31;5597894;31;34383;-84
2022/01/14 12:48:06;;;;;;;;;;;;;;;5.85;74.91;101154.06;5596239;31;35096;-84
2022/01/14 12:51:11;;;;;;;;;;;;;;;5.93;74.81;101140.47;5600774;31;34598;-83
2022/01/14 12:54:18;;;;;;;;;;;;;;;5.94;74.69;101148.28;5597454;31;34546;-84
2022/01/14 12:57:24;;;;;;;;;;;;;;;5.99;74.50;101138.34;5595777;31;34146;-82
2022/01/14 13:00:27;;;;;;;;;;;;;;;5.86;75.35;101118.97;5596585;31;34934;-83
2022/01/14 13:03:30;;;;;;;;;;;;;;;5.97;75.00;101120.97;5598399;31;34357;-84
2022/01/14 13:06:45;;;;;;;;;;;;;;;5.97;74.74;101110.47;5599558;31;34662;-84
2022/01/14 13:09:49;;;;;;;;;;;;;;;5.87;75.10;101113.66;5598339;31;34468;-83
2022/01/14 13:12:53;;;;;;;;;;;;;;;5.98;74.78;101101.66;5599717;31;34502;-84
2022/01/14 13:16:06;;;;;;;;;;;;;;;5.84;74.95;101105.94;5601959;31;34430;-83
2022/01/14 13:19:19;;;;;;;;;;;;;;;5.79;75.34;101105.38;5599642;31;34710;-82
2022/01/14 13:22:21;;;;;;;;;;;;;;;5.79;75.58;101105.38;5602333;31;34731;-82
2022/01/14 13:25:28;;;;;;;;;;;;;;;5.81;75.55;101103.50;5600137;31;35482;-83
2022/01/14 13:28:31;;;;;;;;;;;;;;;5.80;75.67;101104.41;5596535;31;35829;-83
2022/01/14 13:31:34;;;;;;;;;;;;;;;5.74;75.74;101099.53;5597682;31;34337;-83
2022/01/14 13:34:42;;;;;;;;;;;;;;;5.75;76.10;101080.22;5597730;31;34141;-83
2022/01/14 13:37:45;;;;;;;;;;;;;;;5.77;75.96;101067.87;5599978;31;34460;-84
2022/01/14 13:40:51;;;;;;;;;;;;;;;5.64;76.72;101057.22;5598415;31;34509;-84
2022/01/14 13:44:00;;;;;;;;;;;;;;;5.68;76.96;101063.16;5599259;31;35025;-83
2022/01/14 13:47:07;;;;;;;;;;;;;;;5.67;76.87;101064.09;5600187;31;35103;-83
2022/01/14 13:50:18;;;;;;;;;;;;;;;5.62;77.15;101074.00;5599306;31;34809;-83
2022/01/14 13:53:27;;;;;;;;;;;;;;;5.60;77.28;101068.00;5599867;31;34412;-82
2022/01/14 13:56:32;;;;;;;;;;;;;;;5.53;77.60;101071.00;5599596;31;34758;-83
2022/01/14 13:59:35;;;;;;;;;;;;;;;5.62;77.17;101068.75;5597996;31;34997;-84
2022/01/14 14:02:48;;;;;;;;;;;;;;;5.56;77.19;101080.47;5601338;31;35229;-84
2022/01/14 14:05:58;;;;;;;;;;;;;;;5.46;77.49;101084.56;5599245;31;34960;-83
2022/01/14 14:12:57;;;;;;;;;;;;;;;5.45;77.68;101086.34;5599899;31;34103;-84
2022/01/14 14:15:48;;;;;;;;;;;;;;;5.50;77.44;101099.22;5596470;31;34686;-84
2022/01/14 14:18:54;;;;;;;;;;;;;;;5.42;77.85;101099.66;5596736;31;34269;-84
2022/01/14 14:22:09;;;;;;;;;;;;;;;5.46;77.59;101105.56;5598463;31;34656;-83
2022/01/14 14:25:25;;;;;;;;;;;;;;;5.34;78.39;101096.62;5599546;31;34690;-83
2022/01/14 14:28:30;;;;;;;;;;;;;;;5.34;78.32;101101.87;5601032;31;36069;-83
2022/01/14 14:31:35;;;;;;;;;;;;;;;5.30;78.58;101102.97;5599686;31;34496;-83
2022/01/14 14:34:38;;;;;;;;;;;;;;;5.21;79.14;101094.69;5599079;31;33893;-85
2022/01/14 14:37:48;;;;;;;;;;;;;;;5.20;79.11;101100.88;5598135;31;34772;-85
2022/01/14 14:40:57;;;;;;;;;;;;;;;5.17;79.31;101095.78;5601050;31;34780;-83
2022/01/14 14:44:00;;;;;;;;;;;;;;;5.19;79.16;101088.69;5599681;31;35543;-83
2022/01/14 14:47:04;;;;;;;;;;;;;;;5.09;79.90;101092.75;5599098;31;34317;-83
2022/01/14 14:50:16;;;;;;;;;;;;;;;5.08;79.91;101086.66;5599449;31;34889;-83
2022/01/14 14:53:18;;;;;;;;;;;;;;;5.07;80.17;101099.88;5597480;31;34615;-84
2022/01/14 14:56:24;;;;;;;;;;;;;;;5.09;80.05;101092.75;5600414;31;35309;-85
2022/01/14 14:59:26;;;;;;;;;;;;;;;4.95;80.83;101097.00;5598093;31;34320;-83
2022/01/14 15:02:32;;;;;;;;;;;;;;;4.93;81.14;101104.09;5598687;31;34000;-84
2022/01/14 15:05:36;;;;;;;;;;;;;;;4.76;82.11;101118.13;5597186;31;37129;-84
2022/01/14 15:08:38;;;;;;;;;;;;;;;4.78;82.39;101110.19;5598188;31;34277;-84
2022/01/14 15:11:41;;;;;;;;;;;;;;;4.79;82.61;101117.09;5597386;31;34095;-83
2022/01/14 15:14:47;;;;;;;;;;;;;;;4.71;83.16;101109.69;5597166;31;33845;-83
2022/01/14 15:21:00;;;;;;;;;;;;;;;4.61;84.06;101114.56;5598146;31;34048;-83
2022/01/14 15:24:03;;;;;;;;;;;;;;;4.58;84.16;101125.22;5598678;31;34580;-83
2022/01/14 15:27:06;;;;;;;;;;;;;;;4.61;84.16;101104.09;5598251;31;34610;-83
2022/01/14 15:30:09;;;;;;;;;;;;;;;4.57;84.31;101097.31;5614796;31;34663;-83
2022/01/14 15:33:12;;;;;;;;;;;;;;;4.49;84.82;101099.50;5615995;31;34450;-84
2022/01/14 15:36:14;;;;;;;;;;;;;;;4.57;84.42;101099.94;5618099;31;34514;-83
2022/01/14 15:39:18;;;;;;;;;;;;;;;4.58;84.39;101093.75;5617200;31;33934;-83
2022/01/14 15:42:21;;;;;;;;;;;;;;;4.51;84.71;101087.16;5623964;31;35180;-83
2022/01/14 15:45:25;;;;;;;;;;;;;;;4.48;85.14;101097.81;5616024;31;35370;-83
2022/01/14 15:48:27;;;;;;;;;;;;;;;4.37;85.79;101085.31;5596534;31;34212;-83
2022/01/14 15:51:30;;;;;;;;;;;;;;;4.50;85.23;101082.03;5596297;31;34484;-83
2022/01/14 15:54:33;;;;;;;;;;;;;;;4.46;85.43;101068.22;5596232;31;35164;-83
2022/01/14 15:57:35;;;;;;;;;;;;;;;4.36;85.78;101062.66;5597635;31;35270;-83
2022/01/14 16:00:38;;;;;;;;;;;;;;;4.36;86.14;101061.78;5597190;31;34768;-84
2022/01/14 16:03:42;;;;;;;;;;;;;;;4.38;86.16;101063.41;5595428;31;34160;-83
2022/01/14 16:06:44;;;;;;;;;;;;;;;4.45;85.68;101053.41;5600925;31;35320;-82
2022/01/14 16:09:51;;;;;;;;;;;;;;;4.31;86.33;101046.31;5597095;31;34407;-83
2022/01/14 16:12:59;;;;;;;;;;;;;;;4.29;86.71;101035.94;5595719;31;35638;-82
2022/01/14 16:16:02;;;;;;;;;;;;;;;4.23;87.00;101036.25;5595445;31;34993;-83
2022/01/14 16:19:07;;;;;;;;;;;;;;;4.26;87.07;101036.09;5595479;31;35106;-83
2022/01/14 16:22:10;;;;;;;;;;;;;;;4.44;86.12;101033.41;5595975;31;34479;-84
2022/01/14 16:25:15;;;;;;;;;;;;;;;4.35;86.41;101015.56;5596614;31;34697;-83
2022/01/14 16:28:18;;;;;;;;;;;;;;;4.51;85.47;101008.56;5595389;31;34507;-83
2022/01/14 16:31:21;;;;;;;;;;;;;;;4.42;85.83;100998.59;5596512;31;34761;-83
2022/01/14 16:34:23;;;;;;;;;;;;;;;4.48;85.47;101020.06;5597140;31;35000;-83
2022/01/14 16:37:28;;;;;;;;;;;;;;;4.58;84.76;101033.47;5600598;31;35235;-83
2022/01/14 16:40:31;;;;;;;;;;;;;;;4.57;84.68;101023.94;5605145;31;36851;-83